Terminal Aerodrome Forecast
Issued by NWS Norman, OK

Home | Current Version | Previous Version | Text Only | Print | Product List | Glossary On
Versions: 1 2 3 4 5 6 7 8 9 10 11 12 13 14
000
FTUS44 KOUN 171125
TAFSPS
TAF
KSPS 171125Z 1712/1812 33006KT P6SM BKN250
     FM172300 09003KT P6SM OVC040
     FM180300 VRB03KT P6SM -RA OVC020=

USA.gov is the U.S. government's official web portal to all federal, state and local government web resources and services.